sensor_id;sensor_type;location;lat;lon;timestamp;temperature;humidity
61841;DHT22;47773;53.174;6.614;2023-05-27T00:01:18;9.50;99.90
61841;DHT22;47773;53.174;6.614;2023-05-27T00:03:45;9.50;99.90
61841;DHT22;47773;53.174;6.614;2023-05-27T00:06:11;9.40;99.90
61841;DHT22;47773;53.174;6.614;2023-05-27T00:08:37;9.40;99.90
61841;DHT22;47773;53.174;6.614;2023-05-27T00:11:02;9.40;99.90
61841;DHT22;47773;53.174;6.614;2023-05-27T00:13:28;9.40;99.90
61841;DHT22;47773;53.174;6.614;2023-05-27T00:15:54;9.40;99.90
61841;DHT22;47773;53.174;6.614;2023-05-27T00:18:19;9.30;99.90
61841;DHT22;47773;53.174;6.614;2023-05-27T00:20:45;9.30;99.90
61841;DHT22;47773;53.174;6.614;2023-05-27T00:23:11;9.30;99.90
61841;DHT22;47773;53.174;6.614;2023-05-27T00:25:36;9.30;99.90
61841;DHT22;47773;53.174;6.614;2023-05-27T00:28:02;9.20;99.90
61841;DHT22;47773;53.174;6.614;2023-05-27T00:30:28;9.20;99.90
61841;DHT22;47773;53.174;6.614;2023-05-27T00:32:53;9.20;99.90
61841;DHT22;47773;53.174;6.614;2023-05-27T00:35:19;9.10;99.90
61841;DHT22;47773;53.174;6.614;2023-05-27T00:37:45;9.10;99.90
61841;DHT22;47773;53.174;6.614;2023-05-27T00:40:11;9.10;99.90
61841;DHT22;47773;53.174;6.614;2023-05-27T00:42:37;9.00;99.90
61841;DHT22;47773;53.174;6.614;2023-05-27T00:45:03;9.00;99.90
61841;DHT22;47773;53.174;6.614;2023-05-27T00:47:31;9.00;99.90
61841;DHT22;47773;53.174;6.614;2023-05-27T00:49:57;9.00;99.90
61841;DHT22;47773;53.174;6.614;2023-05-27T00:52:24;9.00;99.90
61841;DHT22;47773;53.174;6.614;2023-05-27T00:54:51;9.00;99.90
61841;DHT22;47773;53.174;6.614;2023-05-27T00:57:17;9.00;99.90
61841;DHT22;47773;53.174;6.614;2023-05-27T00:59:43;8.90;99.90
61841;DHT22;47773;53.174;6.614;2023-05-27T01:02:08;8.90;99.90
61841;DHT22;47773;53.174;6.614;2023-05-27T01:04:34;8.90;99.90
61841;DHT22;47773;53.174;6.614;2023-05-27T01:12:31;8.80;99.90
61841;DHT22;47773;53.174;6.614;2023-05-27T01:15:02;8.80;99.90
61841;DHT22;47773;53.174;6.614;2023-05-27T01:17:32;8.80;99.90
61841;DHT22;47773;53.174;6.614;2023-05-27T01:20:01;8.80;99.90
61841;DHT22;47773;53.174;6.614;2023-05-27T01:22:30;8.80;99.90
61841;DHT22;47773;53.174;6.614;2023-05-27T01:24:56;8.80;99.90
61841;DHT22;47773;53.174;6.614;2023-05-27T01:27:22;8.80;99.90
61841;DHT22;47773;53.174;6.614;2023-05-27T01:29:51;8.80;99.90
61841;DHT22;47773;53.174;6.614;2023-05-27T01:32:27;8.80;99.90
61841;DHT22;47773;53.174;6.614;2023-05-27T01:35:09;8.70;99.90
61841;DHT22;47773;53.174;6.614;2023-05-27T01:37:40;8.80;99.90
61841;DHT22;47773;53.174;6.614;2023-05-27T01:40:08;8.70;99.90
61841;DHT22;47773;53.174;6.614;2023-05-27T01:42:39;8.70;99.90
61841;DHT22;47773;53.174;6.614;2023-05-27T01:45:07;8.70;99.90
61841;DHT22;47773;53.174;6.614;2023-05-27T01:47:33;8.70;99.90
61841;DHT22;47773;53.174;6.614;2023-05-27T01:49:59;8.70;99.90
61841;DHT22;47773;53.174;6.614;2023-05-27T01:52:25;8.70;99.90
61841;DHT22;47773;53.174;6.614;2023-05-27T01:54:51;8.70;99.90
61841;DHT22;47773;53.174;6.614;2023-05-27T01:57:17;8.70;99.90
61841;DHT22;47773;53.174;6.614;2023-05-27T01:59:43;8.70;99.90
61841;DHT22;47773;53.174;6.614;2023-05-27T02:02:09;8.70;99.90
61841;DHT22;47773;53.174;6.614;2023-05-27T02:04:34;8.70;99.90
61841;DHT22;47773;53.174;6.614;2023-05-27T02:07:00;8.70;99.90
61841;DHT22;47773;53.174;6.614;2023-05-27T02:09:26;8.60;99.90
61841;DHT22;47773;53.174;6.614;2023-05-27T02:11:52;8.60;99.90
61841;DHT22;47773;53.174;6.614;2023-05-27T02:14:17;8.60;99.90
61841;DHT22;47773;53.174;6.614;2023-05-27T02:16:44;8.60;99.90
61841;DHT22;47773;53.174;6.614;2023-05-27T02:19:09;8.60;99.90
61841;DHT22;47773;53.174;6.614;2023-05-27T02:21:35;8.60;99.90
61841;DHT22;47773;53.174;6.614;2023-05-27T02:24:02;8.60;99.90
61841;DHT22;47773;53.174;6.614;2023-05-27T02:26:28;8.60;99.90
61841;DHT22;47773;53.174;6.614;2023-05-27T02:28:54;8.70;99.90
61841;DHT22;47773;53.174;6.614;2023-05-27T02:31:21;8.70;99.90
61841;DHT22;47773;53.174;6.614;2023-05-27T02:33:47;8.70;99.90
61841;DHT22;47773;53.174;6.614;2023-05-27T02:36:13;8.70;99.90
61841;DHT22;47773;53.174;6.614;2023-05-27T02:38:39;8.70;99.90
61841;DHT22;47773;53.174;6.614;2023-05-27T02:41:04;8.80;99.90
61841;DHT22;47773;53.174;6.614;2023-05-27T02:43:30;8.70;99.90
61841;DHT22;47773;53.174;6.614;2023-05-27T02:45:56;8.70;99.90
61841;DHT22;47773;53.174;6.614;2023-05-27T02:48:22;8.80;99.90
61841;DHT22;47773;53.174;6.614;2023-05-27T02:50:47;8.80;99.90
61841;DHT22;47773;53.174;6.614;2023-05-27T02:53:13;8.80;99.90
61841;DHT22;47773;53.174;6.614;2023-05-27T02:55:40;8.90;99.90
61841;DHT22;47773;53.174;6.614;2023-05-27T02:58:05;8.90;99.90
61841;DHT22;47773;53.174;6.614;2023-05-27T03:00:33;8.90;99.90
61841;DHT22;47773;53.174;6.614;2023-05-27T03:02:59;8.90;99.90
61841;DHT22;47773;53.174;6.614;2023-05-27T03:05:25;9.00;99.90
61841;DHT22;47773;53.174;6.614;2023-05-27T03:07:51;9.00;99.90
61841;DHT22;47773;53.174;6.614;2023-05-27T03:10:17;9.00;99.90
61841;DHT22;47773;53.174;6.614;2023-05-27T03:12:43;9.00;99.90
61841;DHT22;47773;53.174;6.614;2023-05-27T03:15:08;9.00;99.90
61841;DHT22;47773;53.174;6.614;2023-05-27T03:17:37;9.00;99.90
61841;DHT22;47773;53.174;6.614;2023-05-27T03:20:03;9.10;99.90
61841;DHT22;47773;53.174;6.614;2023-05-27T03:22:31;9.10;99.90
61841;DHT22;47773;53.174;6.614;2023-05-27T03:24:56;9.10;99.90
61841;DHT22;47773;53.174;6.614;2023-05-27T03:27:22;9.10;99.90
61841;DHT22;47773;53.174;6.614;2023-05-27T03:29:48;9.10;99.90
61841;DHT22;47773;53.174;6.614;2023-05-27T03:32:14;9.20;99.90
61841;DHT22;47773;53.174;6.614;2023-05-27T03:34:39;9.20;99.90
61841;DHT22;47773;53.174;6.614;2023-05-27T03:37:05;9.30;99.90
61841;DHT22;47773;53.174;6.614;2023-05-27T03:39:31;9.30;99.90
61841;DHT22;47773;53.174;6.614;2023-05-27T03:41:57;9.30;99.90
61841;DHT22;47773;53.174;6.614;2023-05-27T03:44:23;9.30;99.90
61841;DHT22;47773;53.174;6.614;2023-05-27T03:46:49;9.30;99.90
61841;DHT22;47773;53.174;6.614;2023-05-27T03:49:15;9.30;99.90
61841;DHT22;47773;53.174;6.614;2023-05-27T03:51:41;9.30;99.90
61841;DHT22;47773;53.174;6.614;2023-05-27T03:54:07;9.30;99.90
61841;DHT22;47773;53.174;6.614;2023-05-27T03:56:33;9.30;99.90
61841;DHT22;47773;53.174;6.614;2023-05-27T03:58:58;9.30;99.90
61841;DHT22;47773;53.174;6.614;2023-05-27T04:01:24;9.30;99.90
61841;DHT22;47773;53.174;6.614;2023-05-27T04:03:50;9.30;99.90
61841;DHT22;47773;53.174;6.614;2023-05-27T04:06:16;9.30;99.90
61841;DHT22;47773;53.174;6.614;2023-05-27T04:08:42;9.40;99.90
61841;DHT22;47773;53.174;6.614;2023-05-27T04:11:11;9.30;99.90
61841;DHT22;47773;53.174;6.614;2023-05-27T04:13:41;9.40;99.90
61841;DHT22;47773;53.174;6.614;2023-05-27T04:16:06;9.40;99.90
61841;DHT22;47773;53.174;6.614;2023-05-27T04:18:33;9.50;99.90
61841;DHT22;47773;53.174;6.614;2023-05-27T04:20:59;9.50;99.90
61841;DHT22;47773;53.174;6.614;2023-05-27T04:23:25;9.50;99.90
61841;DHT22;47773;53.174;6.614;2023-05-27T04:25:51;9.60;99.90
61841;DHT22;47773;53.174;6.614;2023-05-27T04:28:17;9.60;99.90
61841;DHT22;47773;53.174;6.614;2023-05-27T04:30:43;9.70;99.90
61841;DHT22;47773;53.174;6.614;2023-05-27T04:33:12;9.70;99.90
61841;DHT22;47773;53.174;6.614;2023-05-27T04:35:39;9.80;99.90
61841;DHT22;47773;53.174;6.614;2023-05-27T04:38:09;9.80;99.90
61841;DHT22;47773;53.174;6.614;2023-05-27T04:40:36;9.80;99.90
61841;DHT22;47773;53.174;6.614;2023-05-27T04:43:01;9.90;99.90
61841;DHT22;47773;53.174;6.614;2023-05-27T04:45:27;9.90;99.90
61841;DHT22;47773;53.174;6.614;2023-05-27T04:47:54;10.00;99.90
61841;DHT22;47773;53.174;6.614;2023-05-27T04:50:21;10.00;99.90
61841;DHT22;47773;53.174;6.614;2023-05-27T04:52:46;10.00;99.90
61841;DHT22;47773;53.174;6.614;2023-05-27T04:55:12;10.10;99.90
61841;DHT22;47773;53.174;6.614;2023-05-27T04:57:38;10.10;99.90
61841;DHT22;47773;53.174;6.614;2023-05-27T05:00:07;10.10;99.90
61841;DHT22;47773;53.174;6.614;2023-05-27T05:02:36;10.10;99.90
61841;DHT22;47773;53.174;6.614;2023-05-27T05:05:06;10.10;99.90
61841;DHT22;47773;53.174;6.614;2023-05-27T05:07:32;10.10;99.90
61841;DHT22;47773;53.174;6.614;2023-05-27T05:09:59;10.10;99.90
61841;DHT22;47773;53.174;6.614;2023-05-27T05:12:25;10.10;99.90
61841;DHT22;47773;53.174;6.614;2023-05-27T05:14:51;10.10;99.90
61841;DHT22;47773;53.174;6.614;2023-05-27T05:17:17;10.20;99.90
61841;DHT22;47773;53.174;6.614;2023-05-27T05:19:44;10.20;99.90
61841;DHT22;47773;53.174;6.614;2023-05-27T05:22:10;10.20;99.90
61841;DHT22;47773;53.174;6.614;2023-05-27T05:24:38;10.20;99.90
61841;DHT22;47773;53.174;6.614;2023-05-27T05:27:04;10.20;99.90
61841;DHT22;47773;53.174;6.614;2023-05-27T05:29:32;10.20;99.90
61841;DHT22;47773;53.174;6.614;2023-05-27T05:31:58;10.20;99.90
61841;DHT22;47773;53.174;6.614;2023-05-27T05:34:23;10.20;99.90
61841;DHT22;47773;53.174;6.614;2023-05-27T05:36:49;10.20;99.90
61841;DHT22;47773;53.174;6.614;2023-05-27T05:39:15;10.20;99.90
61841;DHT22;47773;53.174;6.614;2023-05-27T05:41:41;10.20;99.90
61841;DHT22;47773;53.174;6.614;2023-05-27T05:44:06;10.30;99.90
61841;DHT22;47773;53.174;6.614;2023-05-27T05:46:32;10.30;99.90
61841;DHT22;47773;53.174;6.614;2023-05-27T05:48:58;10.30;99.90
61841;DHT22;47773;53.174;6.614;2023-05-27T05:51:23;10.30;99.90
61841;DHT22;47773;53.174;6.614;2023-05-27T05:53:49;10.40;99.90
61841;DHT22;47773;53.174;6.614;2023-05-27T05:56:15;10.40;99.90
61841;DHT22;47773;53.174;6.614;2023-05-27T05:58:40;10.50;99.90
61841;DHT22;47773;53.174;6.614;2023-05-27T06:01:06;10.50;99.90
61841;DHT22;47773;53.174;6.614;2023-05-27T06:03:32;10.60;99.90
61841;DHT22;47773;53.174;6.614;2023-05-27T06:05:57;10.60;99.90
61841;DHT22;47773;53.174;6.614;2023-05-27T06:08:24;10.70;99.90
61841;DHT22;47773;53.174;6.614;2023-05-27T06:10:49;10.80;99.90
61841;DHT22;47773;53.174;6.614;2023-05-27T06:13:16;10.90;99.90
61841;DHT22;47773;53.174;6.614;2023-05-27T06:15:42;10.90;99.90
61841;DHT22;47773;53.174;6.614;2023-05-27T06:18:07;11.00;99.90
61841;DHT22;47773;53.174;6.614;2023-05-27T06:20:33;11.10;99.90
61841;DHT22;47773;53.174;6.614;2023-05-27T06:22:59;11.20;99.90
61841;DHT22;47773;53.174;6.614;2023-05-27T06:25:24;11.30;99.90
61841;DHT22;47773;53.174;6.614;2023-05-27T06:27:50;11.40;99.90
61841;DHT22;47773;53.174;6.614;2023-05-27T06:30:15;11.50;99.90
61841;DHT22;47773;53.174;6.614;2023-05-27T06:32:41;11.60;99.90
61841;DHT22;47773;53.174;6.614;2023-05-27T06:35:07;11.70;99.90
61841;DHT22;47773;53.174;6.614;2023-05-27T06:37:33;11.70;99.90
61841;DHT22;47773;53.174;6.614;2023-05-27T06:39:58;11.80;99.90
61841;DHT22;47773;53.174;6.614;2023-05-27T06:42:24;11.90;99.90
61841;DHT22;47773;53.174;6.614;2023-05-27T06:44:50;12.00;99.90
61841;DHT22;47773;53.174;6.614;2023-05-27T06:47:16;12.10;99.90
61841;DHT22;47773;53.174;6.614;2023-05-27T06:49:41;12.20;99.90
61841;DHT22;47773;53.174;6.614;2023-05-27T06:52:07;12.30;99.90
61841;DHT22;47773;53.174;6.614;2023-05-27T06:54:33;12.40;99.90
61841;DHT22;47773;53.174;6.614;2023-05-27T06:56:59;12.50;99.90
61841;DHT22;47773;53.174;6.614;2023-05-27T06:59:25;12.70;99.90
61841;DHT22;47773;53.174;6.614;2023-05-27T07:01:51;12.70;99.90
61841;DHT22;47773;53.174;6.614;2023-05-27T07:04:16;12.80;99.90
61841;DHT22;47773;53.174;6.614;2023-05-27T07:06:43;12.80;99.90
61841;DHT22;47773;53.174;6.614;2023-05-27T07:09:08;13.00;99.90
61841;DHT22;47773;53.174;6.614;2023-05-27T07:11:36;13.10;99.90
61841;DHT22;47773;53.174;6.614;2023-05-27T07:14:02;13.30;99.90
61841;DHT22;47773;53.174;6.614;2023-05-27T07:16:28;13.40;99.90
61841;DHT22;47773;53.174;6.614;2023-05-27T07:18:53;13.50;99.90
61841;DHT22;47773;53.174;6.614;2023-05-27T07:21:19;13.60;99.90
61841;DHT22;47773;53.174;6.614;2023-05-27T07:23:45;13.70;99.90
61841;DHT22;47773;53.174;6.614;2023-05-27T07:26:10;13.90;99.90
61841;DHT22;47773;53.174;6.614;2023-05-27T07:28:36;14.10;99.90
61841;DHT22;47773;53.174;6.614;2023-05-27T07:31:03;14.20;99.90
61841;DHT22;47773;53.174;6.614;2023-05-27T07:33:29;14.40;99.90
61841;DHT22;47773;53.174;6.614;2023-05-27T07:35:54;14.60;99.90
61841;DHT22;47773;53.174;6.614;2023-05-27T07:38:20;14.70;99.90
61841;DHT22;47773;53.174;6.614;2023-05-27T07:40:46;14.90;99.90
61841;DHT22;47773;53.174;6.614;2023-05-27T07:43:11;14.90;99.90
61841;DHT22;47773;53.174;6.614;2023-05-27T07:45:37;15.10;99.90
61841;DHT22;47773;53.174;6.614;2023-05-27T07:48:03;15.20;99.90
61841;DHT22;47773;53.174;6.614;2023-05-27T07:50:28;15.30;99.90
61841;DHT22;47773;53.174;6.614;2023-05-27T07:52:54;15.60;99.90
61841;DHT22;47773;53.174;6.614;2023-05-27T07:55:20;15.70;99.90
61841;DHT22;47773;53.174;6.614;2023-05-27T07:57:46;15.80;99.90
61841;DHT22;47773;53.174;6.614;2023-05-27T08:00:12;15.80;99.90
61841;DHT22;47773;53.174;6.614;2023-05-27T08:02:38;15.70;99.90
61841;DHT22;47773;53.174;6.614;2023-05-27T08:05:04;15.70;99.90
61841;DHT22;47773;53.174;6.614;2023-05-27T08:07:30;15.70;99.90
61841;DHT22;47773;53.174;6.614;2023-05-27T08:09:56;15.70;99.90
61841;DHT22;47773;53.174;6.614;2023-05-27T08:12:21;15.70;99.90
61841;DHT22;47773;53.174;6.614;2023-05-27T08:14:48;15.90;99.90
61841;DHT22;47773;53.174;6.614;2023-05-27T08:17:14;16.00;99.90
61841;DHT22;47773;53.174;6.614;2023-05-27T08:19:40;16.30;99.90
61841;DHT22;47773;53.174;6.614;2023-05-27T08:22:06;16.40;99.90
61841;DHT22;47773;53.174;6.614;2023-05-27T08:24:34;16.60;99.90
61841;DHT22;47773;53.174;6.614;2023-05-27T08:27:00;16.90;99.90
61841;DHT22;47773;53.174;6.614;2023-05-27T08:29:31;17.10;99.90
61841;DHT22;47773;53.174;6.614;2023-05-27T08:31:58;17.30;99.90
61841;DHT22;47773;53.174;6.614;2023-05-27T08:34:24;17.70;99.90
61841;DHT22;47773;53.174;6.614;2023-05-27T08:36:51;17.80;99.90
61841;DHT22;47773;53.174;6.614;2023-05-27T08:39:17;17.90;99.90
61841;DHT22;47773;53.174;6.614;2023-05-27T08:41:43;17.80;99.90
61841;DHT22;47773;53.174;6.614;2023-05-27T08:44:08;18.00;99.90
61841;DHT22;47773;53.174;6.614;2023-05-27T08:46:36;18.30;99.90
61841;DHT22;47773;53.174;6.614;2023-05-27T08:49:02;18.60;99.90
61841;DHT22;47773;53.174;6.614;2023-05-27T08:51:27;18.60;99.90
61841;DHT22;47773;53.174;6.614;2023-05-27T08:53:53;18.70;99.90
61841;DHT22;47773;53.174;6.614;2023-05-27T08:56:19;19.00;99.90
61841;DHT22;47773;53.174;6.614;2023-05-27T08:58:47;18.90;98.10
61841;DHT22;47773;53.174;6.614;2023-05-27T09:01:16;19.10;97.60
61841;DHT22;47773;53.174;6.614;2023-05-27T09:03:42;19.40;96.60
61841;DHT22;47773;53.174;6.614;2023-05-27T09:06:09;19.60;95.70
61841;DHT22;47773;53.174;6.614;2023-05-27T09:08:34;19.70;94.30
61841;DHT22;47773;53.174;6.614;2023-05-27T09:11:01;19.80;93.70
61841;DHT22;47773;53.174;6.614;2023-05-27T09:13:28;20.00;93.50
61841;DHT22;47773;53.174;6.614;2023-05-27T09:16:02;20.30;92.60
61841;DHT22;47773;53.174;6.614;2023-05-27T09:18:34;20.00;90.60
61841;DHT22;47773;53.174;6.614;2023-05-27T09:21:01;19.90;90.80
61841;DHT22;47773;53.174;6.614;2023-05-27T09:23:27;20.10;91.30
61841;DHT22;47773;53.174;6.614;2023-05-27T09:25:53;20.10;90.70
61841;DHT22;47773;53.174;6.614;2023-05-27T09:28:25;20.20;90.60
61841;DHT22;47773;53.174;6.614;2023-05-27T09:30:59;20.40;88.80
61841;DHT22;47773;53.174;6.614;2023-05-27T09:33:26;20.40;87.10
61841;DHT22;47773;53.174;6.614;2023-05-27T09:35:52;20.40;88.70
61841;DHT22;47773;53.174;6.614;2023-05-27T09:38:17;20.10;88.10
61841;DHT22;47773;53.174;6.614;2023-05-27T09:40:46;20.30;88.80
61841;DHT22;47773;53.174;6.614;2023-05-27T09:43:15;20.30;87.60
61841;DHT22;47773;53.174;6.614;2023-05-27T09:45:44;20.60;87.00
61841;DHT22;47773;53.174;6.614;2023-05-27T09:48:12;20.50;86.30
61841;DHT22;47773;53.174;6.614;2023-05-27T09:50:39;20.70;85.80
61841;DHT22;47773;53.174;6.614;2023-05-27T09:53:06;20.70;84.50
61841;DHT22;47773;53.174;6.614;2023-05-27T09:55:33;20.60;83.80
61841;DHT22;47773;53.174;6.614;2023-05-27T09:57:58;20.60;83.80
61841;DHT22;47773;53.174;6.614;2023-05-27T10:00:26;20.50;84.10
61841;DHT22;47773;53.174;6.614;2023-05-27T10:02:52;20.50;84.60
61841;DHT22;47773;53.174;6.614;2023-05-27T10:05:19;20.50;84.30
61841;DHT22;47773;53.174;6.614;2023-05-27T10:07:46;20.90;84.60
61841;DHT22;47773;53.174;6.614;2023-05-27T10:10:16;21.20;83.20
61841;DHT22;47773;53.174;6.614;2023-05-27T10:12:44;21.60;80.50
61841;DHT22;47773;53.174;6.614;2023-05-27T10:15:24;21.60;80.10
61841;DHT22;47773;53.174;6.614;2023-05-27T10:18:04;21.50;77.60
61841;DHT22;47773;53.174;6.614;2023-05-27T10:20:41;21.50;75.20
61841;DHT22;47773;53.174;6.614;2023-05-27T10:23:15;21.30;76.80
61841;DHT22;47773;53.174;6.614;2023-05-27T10:26:07;21.40;76.70
61841;DHT22;47773;53.174;6.614;2023-05-27T10:28:34;21.40;76.80
61841;DHT22;47773;53.174;6.614;2023-05-27T10:33:30;21.30;76.90
61841;DHT22;47773;53.174;6.614;2023-05-27T10:36:02;21.40;77.40
61841;DHT22;47773;53.174;6.614;2023-05-27T10:38:28;21.60;77.40
61841;DHT22;47773;53.174;6.614;2023-05-27T10:40:59;21.50;77.00
61841;DHT22;47773;53.174;6.614;2023-05-27T10:43:28;21.60;77.30
61841;DHT22;47773;53.174;6.614;2023-05-27T10:46:07;21.80;77.50
61841;DHT22;47773;53.174;6.614;2023-05-27T10:48:34;21.90;76.00
61841;DHT22;47773;53.174;6.614;2023-05-27T10:51:00;22.00;76.50
61841;DHT22;47773;53.174;6.614;2023-05-27T10:53:27;22.10;76.60
61841;DHT22;47773;53.174;6.614;2023-05-27T10:55:53;22.40;75.60
61841;DHT22;47773;53.174;6.614;2023-05-27T10:58:20;22.20;74.30
61841;DHT22;47773;53.174;6.614;2023-05-27T11:00:53;21.90;74.20
61841;DHT22;47773;53.174;6.614;2023-05-27T11:03:27;21.60;72.50
61841;DHT22;47773;53.174;6.614;2023-05-27T11:06:03;21.50;73.90
61841;DHT22;47773;53.174;6.614;2023-05-27T11:08:31;21.50;73.70
61841;DHT22;47773;53.174;6.614;2023-05-27T11:11:01;21.50;74.80
61841;DHT22;47773;53.174;6.614;2023-05-27T11:13:46;21.60;74.20
61841;DHT22;47773;53.174;6.614;2023-05-27T11:16:13;21.80;73.60
61841;DHT22;47773;53.174;6.614;2023-05-27T11:18:48;21.80;73.10
61841;DHT22;47773;53.174;6.614;2023-05-27T11:21:15;21.70;72.10
61841;DHT22;47773;53.174;6.614;2023-05-27T11:23:46;21.70;73.10
61841;DHT22;47773;53.174;6.614;2023-05-27T11:26:19;21.60;72.50
61841;DHT22;47773;53.174;6.614;2023-05-27T11:28:55;21.90;71.40
61841;DHT22;47773;53.174;6.614;2023-05-27T11:31:27;22.00;72.10
61841;DHT22;47773;53.174;6.614;2023-05-27T11:33:53;22.00;72.00
61841;DHT22;47773;53.174;6.614;2023-05-27T11:36:19;22.10;72.10
61841;DHT22;47773;53.174;6.614;2023-05-27T11:38:48;22.10;72.70
61841;DHT22;47773;53.174;6.614;2023-05-27T11:41:13;22.00;71.90
61841;DHT22;47773;53.174;6.614;2023-05-27T11:46:20;21.90;70.00
61841;DHT22;47773;53.174;6.614;2023-05-27T11:48:46;22.00;71.10
61841;DHT22;47773;53.174;6.614;2023-05-27T11:51:12;22.20;71.50
61841;DHT22;47773;53.174;6.614;2023-05-27T11:53:44;22.30;70.90
61841;DHT22;47773;53.174;6.614;2023-05-27T11:56:10;22.30;70.20
61841;DHT22;47773;53.174;6.614;2023-05-27T11:58:36;22.40;70.30
61841;DHT22;47773;53.174;6.614;2023-05-27T12:01:03;22.30;70.20
61841;DHT22;47773;53.174;6.614;2023-05-27T12:03:29;22.30;70.20
61841;DHT22;47773;53.174;6.614;2023-05-27T12:05:55;22.30;70.20
61841;DHT22;47773;53.174;6.614;2023-05-27T12:08:21;22.10;69.50
61841;DHT22;47773;53.174;6.614;2023-05-27T12:10:46;22.30;70.30
61841;DHT22;47773;53.174;6.614;2023-05-27T12:13:15;22.10;69.60
61841;DHT22;47773;53.174;6.614;2023-05-27T12:15:41;22.10;69.40
61841;DHT22;47773;53.174;6.614;2023-05-27T12:18:07;22.00;69.50
61841;DHT22;47773;53.174;6.614;2023-05-27T12:20:32;21.90;69.70
61841;DHT22;47773;53.174;6.614;2023-05-27T12:22:58;21.90;70.20
61841;DHT22;47773;53.174;6.614;2023-05-27T12:25:24;22.10;70.90
61841;DHT22;47773;53.174;6.614;2023-05-27T12:27:50;22.10;69.30
61841;DHT22;47773;53.174;6.614;2023-05-27T12:30:15;22.10;69.60
61841;DHT22;47773;53.174;6.614;2023-05-27T12:32:41;22.10;70.10
61841;DHT22;47773;53.174;6.614;2023-05-27T12:35:07;22.20;70.10
61841;DHT22;47773;53.174;6.614;2023-05-27T12:37:33;22.10;70.10
61841;DHT22;47773;53.174;6.614;2023-05-27T12:39:59;22.10;70.30
61841;DHT22;47773;53.174;6.614;2023-05-27T12:42:25;22.00;70.30
61841;DHT22;47773;53.174;6.614;2023-05-27T12:44:50;22.00;70.20
61841;DHT22;47773;53.174;6.614;2023-05-27T12:47:16;21.70;69.20
61841;DHT22;47773;53.174;6.614;2023-05-27T12:49:41;21.80;69.60
61841;DHT22;47773;53.174;6.614;2023-05-27T12:52:08;21.70;69.60
61841;DHT22;47773;53.174;6.614;2023-05-27T12:54:34;21.70;70.40
61841;DHT22;47773;53.174;6.614;2023-05-27T12:57:00;21.70;70.20
61841;DHT22;47773;53.174;6.614;2023-05-27T12:59:27;21.70;70.20
61841;DHT22;47773;53.174;6.614;2023-05-27T13:01:52;21.80;70.10
61841;DHT22;47773;53.174;6.614;2023-05-27T13:04:18;21.90;70.10
61841;DHT22;47773;53.174;6.614;2023-05-27T13:06:44;21.80;70.00
61841;DHT22;47773;53.174;6.614;2023-05-27T13:09:09;21.60;69.80
61841;DHT22;47773;53.174;6.614;2023-05-27T13:11:35;21.50;70.60
61841;DHT22;47773;53.174;6.614;2023-05-27T13:14:01;21.60;70.80
61841;DHT22;47773;53.174;6.614;2023-05-27T13:16:26;21.50;70.30
61841;DHT22;47773;53.174;6.614;2023-05-27T13:18:52;21.50;70.90
61841;DHT22;47773;53.174;6.614;2023-05-27T13:21:17;21.50;70.60
61841;DHT22;47773;53.174;6.614;2023-05-27T13:23:43;21.40;70.60
61841;DHT22;47773;53.174;6.614;2023-05-27T13:26:09;21.40;71.30
61841;DHT22;47773;53.174;6.614;2023-05-27T13:28:34;21.50;71.50
61841;DHT22;47773;53.174;6.614;2023-05-27T13:31:00;21.60;71.40
61841;DHT22;47773;53.174;6.614;2023-05-27T13:33:26;21.70;71.50
61841;DHT22;47773;53.174;6.614;2023-05-27T13:35:51;21.50;72.40
61841;DHT22;47773;53.174;6.614;2023-05-27T13:38:17;21.60;72.40
61841;DHT22;47773;53.174;6.614;2023-05-27T13:40:43;21.50;73.20
61841;DHT22;47773;53.174;6.614;2023-05-27T13:43:09;21.50;73.80
61841;DHT22;47773;53.174;6.614;2023-05-27T13:45:34;21.30;73.70
61841;DHT22;47773;53.174;6.614;2023-05-27T13:48:00;21.40;74.20
61841;DHT22;47773;53.174;6.614;2023-05-27T13:50:25;21.30;74.60
61841;DHT22;47773;53.174;6.614;2023-05-27T13:52:53;21.30;74.90
61841;DHT22;47773;53.174;6.614;2023-05-27T13:55:19;21.30;75.30
61841;DHT22;47773;53.174;6.614;2023-05-27T13:57:44;21.30;74.90
61841;DHT22;47773;53.174;6.614;2023-05-27T14:00:10;21.10;75.00
61841;DHT22;47773;53.174;6.614;2023-05-27T14:02:36;21.10;75.40
61841;DHT22;47773;53.174;6.614;2023-05-27T14:05:03;21.10;75.60
61841;DHT22;47773;53.174;6.614;2023-05-27T14:07:29;21.10;75.80
61841;DHT22;47773;53.174;6.614;2023-05-27T14:09:54;21.10;76.50
61841;DHT22;47773;53.174;6.614;2023-05-27T14:12:20;21.10;76.90
61841;DHT22;47773;53.174;6.614;2023-05-27T14:14:46;21.00;76.90
61841;DHT22;47773;53.174;6.614;2023-05-27T14:17:11;21.00;77.20
61841;DHT22;47773;53.174;6.614;2023-05-27T14:19:37;21.00;77.50
61841;DHT22;47773;53.174;6.614;2023-05-27T14:22:03;20.90;77.80
61841;DHT22;47773;53.174;6.614;2023-05-27T14:24:28;20.90;78.00
61841;DHT22;47773;53.174;6.614;2023-05-27T14:26:56;20.90;78.40
61841;DHT22;47773;53.174;6.614;2023-05-27T14:29:23;20.90;79.00
61841;DHT22;47773;53.174;6.614;2023-05-27T14:31:49;20.90;79.40
61841;DHT22;47773;53.174;6.614;2023-05-27T14:34:14;20.90;79.80
61841;DHT22;47773;53.174;6.614;2023-05-27T14:36:40;20.70;79.80
61841;DHT22;47773;53.174;6.614;2023-05-27T14:39:06;20.70;79.70
61841;DHT22;47773;53.174;6.614;2023-05-27T14:41:32;20.70;80.30
61841;DHT22;47773;53.174;6.614;2023-05-27T14:43:58;20.70;80.70
61841;DHT22;47773;53.174;6.614;2023-05-27T14:46:23;20.70;81.90
61841;DHT22;47773;53.174;6.614;2023-05-27T14:48:49;20.60;83.70
61841;DHT22;47773;53.174;6.614;2023-05-27T14:51:15;20.50;85.50
61841;DHT22;47773;53.174;6.614;2023-05-27T14:53:41;20.50;86.80
61841;DHT22;47773;53.174;6.614;2023-05-27T14:56:07;20.50;88.10
61841;DHT22;47773;53.174;6.614;2023-05-27T14:58:32;20.40;89.30
61841;DHT22;47773;53.174;6.614;2023-05-27T15:00:58;20.40;90.40
61841;DHT22;47773;53.174;6.614;2023-05-27T15:03:24;20.30;90.50
61841;DHT22;47773;53.174;6.614;2023-05-27T15:05:49;20.30;90.50
61841;DHT22;47773;53.174;6.614;2023-05-27T15:08:17;20.30;91.10
61841;DHT22;47773;53.174;6.614;2023-05-27T15:10:46;20.20;91.90
61841;DHT22;47773;53.174;6.614;2023-05-27T15:13:11;20.20;92.00
61841;DHT22;47773;53.174;6.614;2023-05-27T15:15:37;20.10;92.30
61841;DHT22;47773;53.174;6.614;2023-05-27T15:18:05;20.10;92.50
61841;DHT22;47773;53.174;6.614;2023-05-27T15:20:33;20.10;93.00
61841;DHT22;47773;53.174;6.614;2023-05-27T15:22:58;20.00;93.40
61841;DHT22;47773;53.174;6.614;2023-05-27T15:25:24;19.90;93.10
61841;DHT22;47773;53.174;6.614;2023-05-27T15:27:50;19.90;93.90
61841;DHT22;47773;53.174;6.614;2023-05-27T15:30:15;19.90;94.60
61841;DHT22;47773;53.174;6.614;2023-05-27T15:32:41;19.80;94.90
61841;DHT22;47773;53.174;6.614;2023-05-27T15:35:08;19.70;95.70
61841;DHT22;47773;53.174;6.614;2023-05-27T15:37:33;19.70;96.70
61841;DHT22;47773;53.174;6.614;2023-05-27T15:40:00;19.70;97.00
61841;DHT22;47773;53.174;6.614;2023-05-27T15:42:26;19.60;97.90